Time;durP1;ratioP1;P1;durP2;ratioP2;P2;SDS_P1;SDS_P2;PMS_P1;PMS_P2;Temp;Humidity;BMP_temperature;BMP_pressure;BME280_temperature;BME280_humidity;BME280_pressure;Samples;Min_cycle;Max_cycle;Signal;HPM_P1;HPM_P2
2023/12/30 00:01:17;;;;;;;2.70;1.30;;;;;;;6.30;100.00;100215.84;5012467;28;20414;-67
2023/12/30 00:03:44;;;;;;;1.83;1.17;;;;;;;6.17;100.00;100219.88;5013886;28;20220;-67
2023/12/30 00:06:11;;;;;;;2.37;1.53;;;;;;;6.09;100.00;100212.63;5011525;28;20205;-67
2023/12/30 00:08:37;;;;;;;4.63;1.37;;;;;;;6.07;100.00;100212.56;5014290;28;20210;-67
2023/12/30 00:13:40;;;;;;;4.10;1.70;;;;;;;5.95;100.00;100214.84;5003333;28;20252;-66
2023/12/30 00:16:06;;;;;;;2.43;1.60;;;;;;;5.95;100.00;100202.59;5009161;28;20200;-67
2023/12/30 00:18:33;;;;;;;3.47;1.67;;;;;;;6.02;100.00;100202.78;5002336;28;20207;-68
2023/12/30 00:20:59;;;;;;;6.27;2.10;;;;;;;5.95;100.00;100218.34;4997521;28;20672;-67
2023/12/30 00:23:26;;;;;;;4.53;1.97;;;;;;;6.04;100.00;100224.75;4984148;28;20216;-69
2023/12/30 00:26:02;;;;;;;1.97;1.60;;;;;;;6.29;100.00;100227.19;4983285;28;20200;-67
2023/12/30 00:28:28;;;;;;;3.57;1.50;;;;;;;6.26;100.00;100225.38;4994651;28;20761;-67
2023/12/30 00:30:55;;;;;;;3.13;1.40;;;;;;;6.22;100.00;100218.25;4990930;28;20256;-69
2023/12/30 00:33:21;;;;;;;6.17;1.47;;;;;;;6.28;100.00;100220.16;4989746;28;20636;-67
2023/12/30 00:35:48;;;;;;;3.23;1.40;;;;;;;6.33;100.00;100229.06;4991651;28;20592;-66
2023/12/30 00:38:14;;;;;;;2.30;1.40;;;;;;;6.29;100.00;100221.94;4992517;28;20697;-68
2023/12/30 00:40:48;;;;;;;3.67;1.57;;;;;;;6.22;100.00;100222.63;4982673;28;20228;-69
2023/12/30 00:43:15;;;;;;;3.50;1.47;;;;;;;6.22;100.00;100231.41;4995530;28;20201;-67
2023/12/30 00:45:41;;;;;;;5.00;1.70;;;;;;;6.23;100.00;100227.03;4995957;28;20251;-67
2023/12/30 00:48:12;;;;;;;6.90;1.73;;;;;;;6.16;100.00;100233.88;4995594;28;20257;-67
2023/12/30 00:50:38;;;;;;;3.43;1.47;;;;;;;6.06;100.00;100234.47;4996524;28;20223;-67
2023/12/30 00:53:05;;;;;;;2.50;1.40;;;;;;;5.93;100.00;100232.28;4996043;28;20215;-67
2023/12/30 00:55:31;;;;;;;3.17;1.57;;;;;;;5.85;100.00;100241.66;4994819;28;20239;-69
2023/12/30 00:57:58;;;;;;;3.40;1.10;;;;;;;5.71;100.00;100229.88;4995240;28;20660;-67
2023/12/30 01:00:24;;;;;;;3.63;1.27;;;;;;;5.70;100.00;100236.84;4994317;28;20211;-67
2023/12/30 01:02:50;;;;;;;3.17;1.10;;;;;;;5.65;100.00;100234.09;4996145;28;20201;-67
2023/12/30 01:05:17;;;;;;;3.37;1.43;;;;;;;5.68;100.00;100235.91;4995230;28;20223;-66
2023/12/30 01:07:43;;;;;;;4.43;1.50;;;;;;;5.69;100.00;100244.69;4993485;28;20211;-70
2023/12/30 01:10:10;;;;;;;3.10;1.37;;;;;;;5.63;100.00;100235.78;4995206;28;20226;-69
2023/12/30 01:12:36;;;;;;;6.03;1.50;;;;;;;5.80;100.00;100259.03;4995837;28;20262;-67
2023/12/30 01:15:04;;;;;;;3.20;1.40;;;;;;;5.82;100.00;100254.72;4992948;28;20219;-67
2023/12/30 01:17:31;;;;;;;2.77;1.37;;;;;;;5.91;100.00;100249.75;4998617;28;20270;-67
2023/12/30 01:19:57;;;;;;;4.73;1.30;;;;;;;5.87;100.00;100254.00;4994888;28;20261;-67
2023/12/30 01:22:24;;;;;;;2.43;1.43;;;;;;;5.90;100.00;100264.63;4995509;28;20491;-69
2023/12/30 01:24:50;;;;;;;2.87;1.40;;;;;;;5.81;100.00;100256.44;4984386;28;20714;-67
2023/12/30 01:27:17;;;;;;;3.27;1.40;;;;;;;5.76;100.00;100260.69;4995206;28;20218;-68
2023/12/30 01:29:43;;;;;;;2.97;1.73;;;;;;;5.69;100.00;100258.72;5010299;28;20208;-67
2023/12/30 01:32:10;;;;;;;3.57;1.40;;;;;;;5.63;100.00;100266.41;4992414;28;20225;-68
2023/12/30 01:34:36;;;;;;;3.27;1.40;;;;;;;5.59;100.00;100270.66;4991523;28;20662;-69
2023/12/30 01:37:03;;;;;;;5.93;1.40;;;;;;;5.63;100.00;100269.94;4994911;28;20240;-67
2023/12/30 01:39:29;;;;;;;2.50;1.30;;;;;;;5.61;100.00;100270.72;4995225;28;20210;-67
2023/12/30 01:41:56;;;;;;;2.33;1.30;;;;;;;5.70;100.00;100270.13;4993696;28;20225;-69
2023/12/30 01:44:22;;;;;;;2.60;1.30;;;;;;;5.64;100.00;100261.22;4993853;28;20599;-67
2023/12/30 01:46:49;;;;;;;1.97;1.17;;;;;;;5.71;100.00;100271.91;4993721;28;20212;-67
2023/12/30 01:49:16;;;;;;;8.63;1.30;;;;;;;5.73;100.00;100275.47;4993605;28;20644;-67
2023/12/30 01:51:42;;;;;;;2.90;1.50;;;;;;;5.69;100.00;100273.59;4993874;28;20234;-68
2023/12/30 01:54:09;;;;;;;3.30;1.30;;;;;;;5.61;100.00;100268.09;4998214;28;20216;-67
2023/12/30 01:56:35;;;;;;;2.73;1.33;;;;;;;5.57;100.00;100284.59;4993635;28;20220;-67
2023/12/30 01:59:02;;;;;;;2.10;1.20;;;;;;;5.49;100.00;100296.59;4993875;28;20198;-67
2023/12/30 02:01:29;;;;;;;2.10;1.43;;;;;;;5.40;100.00;100294.56;4992912;28;20308;-68
2023/12/30 02:03:55;;;;;;;2.03;1.30;;;;;;;5.36;100.00;100292.69;4994023;28;20231;-67
2023/12/30 02:06:22;;;;;;;1.97;1.00;;;;;;;5.33;100.00;100297.84;4992797;28;20219;-66
2023/12/30 02:08:49;;;;;;;3.90;1.20;;;;;;;5.25;100.00;100287.09;4992148;28;20215;-67
2023/12/30 02:11:16;;;;;;;4.80;1.13;;;;;;;5.22;100.00;100299.22;4990354;28;20233;-67
2023/12/30 02:13:43;;;;;;;2.70;1.33;;;;;;;5.18;100.00;100295.56;4993646;28;20258;-69
2023/12/30 02:16:10;;;;;;;3.47;1.40;;;;;;;5.16;100.00;100291.13;4992074;28;20809;-68
2023/12/30 02:18:38;;;;;;;3.77;1.40;;;;;;;5.10;100.00;100294.44;4993284;28;20219;-68
2023/12/30 02:21:05;;;;;;;6.03;1.50;;;;;;;5.03;100.00;100292.44;4990836;28;20259;-67
2023/12/30 02:23:31;;;;;;;4.90;1.60;;;;;;;5.02;100.00;100293.28;4988197;28;20207;-70
2023/12/30 02:25:57;;;;;;;2.20;1.10;;;;;;;5.04;100.00;100296.84;4986106;28;20206;-67
2023/12/30 02:28:24;;;;;;;2.43;1.23;;;;;;;5.12;100.00;100291.84;4991001;28;20309;-68
2023/12/30 02:30:50;;;;;;;4.10;1.37;;;;;;;5.31;100.00;100296.91;5006589;28;20222;-67
2023/12/30 02:33:17;;;;;;;4.30;1.13;;;;;;;5.40;100.00;100304.19;4983924;28;20626;-67
2023/12/30 02:35:43;;;;;;;5.97;1.40;;;;;;;5.51;100.00;100295.78;4991323;28;20737;-68
2023/12/30 02:38:10;;;;;;;1.70;1.10;;;;;;;5.65;100.00;100301.50;4991838;28;20204;-67
2023/12/30 02:40:37;;;;;;;5.10;1.20;;;;;;;5.72;100.00;100297.31;4991668;28;20270;-67
2023/12/30 02:43:03;;;;;;;2.80;1.30;;;;;;;5.66;100.00;100301.56;4994888;28;20255;-66
2023/12/30 02:45:30;;;;;;;4.03;1.30;;;;;;;5.57;100.00;100295.09;4983304;28;20201;-67
2023/12/30 02:47:57;;;;;;;3.80;1.10;;;;;;;5.53;100.00;100290.59;4991771;28;20200;-67
2023/12/30 02:50:23;;;;;;;4.00;1.63;;;;;;;5.57;100.00;100293.34;4991198;28;20243;-67
2023/12/30 02:52:49;;;;;;;3.37;1.00;;;;;;;5.62;100.00;100288.28;4988820;28;20291;-67
2023/12/30 02:55:16;;;;;;;4.23;1.40;;;;;;;5.65;100.00;100283.13;4991146;28;20227;-70
2023/12/30 02:57:42;;;;;;;2.77;1.13;;;;;;;5.65;100.00;100293.63;4991385;28;20208;-68
2023/12/30 03:00:16;;;;;;;4.83;1.23;;;;;;;5.62;100.00;100294.41;4991411;28;20219;-67
2023/12/30 03:02:43;;;;;;;3.17;1.40;;;;;;;5.60;100.00;100284.69;4990724;28;20303;-66
2023/12/30 03:05:10;;;;;;;2.97;1.27;;;;;;;5.60;100.00;100282.97;4990018;28;20198;-66
2023/12/30 03:07:36;;;;;;;4.87;1.17;;;;;;;5.82;100.00;100291.50;5006741;28;20205;-70
2023/12/30 03:10:04;;;;;;;4.73;1.40;;;;;;;5.98;100.00;100305.19;4990547;28;20203;-66
2023/12/30 03:12:31;;;;;;;3.23;1.40;;;;;;;6.19;100.00;100298.78;4989891;28;20234;-68
2023/12/30 03:14:57;;;;;;;4.33;1.23;;;;;;;6.28;100.00;100307.84;4990418;28;20245;-67
2023/12/30 03:17:23;;;;;;;3.60;1.33;;;;;;;6.33;100.00;100302.69;4990991;28;20295;-67
2023/12/30 03:19:50;;;;;;;3.93;1.33;;;;;;;6.33;100.00;100302.69;4988306;28;20763;-67
2023/12/30 03:22:16;;;;;;;1.90;1.20;;;;;;;6.34;100.00;100301.84;4990106;28;20234;-68
2023/12/30 03:24:43;;;;;;;4.13;1.40;;;;;;;6.23;100.00;100298.91;4997064;28;20618;-70
2023/12/30 03:27:10;;;;;;;3.50;0.97;;;;;;;6.10;100.00;100314.31;4989923;28;20226;-67
2023/12/30 03:29:36;;;;;;;5.47;1.10;;;;;;;6.08;100.00;100310.75;4990379;28;20212;-67
2023/12/30 03:32:03;;;;;;;4.40;1.30;;;;;;;6.14;100.00;100306.56;4990084;28;20243;-67
2023/12/30 03:34:29;;;;;;;6.77;1.30;;;;;;;6.20;100.00;100306.72;4989364;28;20223;-67
2023/12/30 03:36:56;;;;;;;4.47;1.60;;;;;;;6.36;100.00;100304.53;4989399;28;20227;-69
2023/12/30 03:39:22;;;;;;;3.03;1.10;;;;;;;6.49;100.00;100307.56;4990026;28;20207;-67
2023/12/30 03:41:49;;;;;;;4.07;1.10;;;;;;;6.62;100.00;100302.66;4989241;28;20228;-69
2023/12/30 03:44:16;;;;;;;4.00;1.40;;;;;;;6.71;100.00;100321.31;4989409;28;20292;-67
2023/12/30 03:46:42;;;;;;;3.57;1.43;;;;;;;6.74;100.00;100314.38;4989356;28;20208;-66
2023/12/30 03:49:09;;;;;;;2.07;1.40;;;;;;;6.71;100.00;100310.78;4989881;28;20292;-68
2023/12/30 03:51:36;;;;;;;6.07;1.10;;;;;;;6.68;100.00;100305.44;4989617;28;20286;-68
2023/12/30 03:54:02;;;;;;;3.30;1.07;;;;;;;6.73;100.00;100306.44;4983584;28;20219;-66
2023/12/30 03:56:30;;;;;;;2.50;1.47;;;;;;;6.77;100.00;100308.31;4988514;28;20219;-72
2023/12/30 03:58:59;;;;;;;4.30;1.40;;;;;;;6.81;100.00;100311.09;5001476;28;20204;-66
2023/12/30 04:01:26;;;;;;;1.97;1.20;;;;;;;6.90;100.00;100300.81;5006122;28;20339;-68
2023/12/30 04:03:53;;;;;;;4.93;1.77;;;;;;;7.11;100.00;100307.47;5006597;28;20228;-67
2023/12/30 04:06:19;;;;;;;2.83;1.50;;;;;;;7.13;100.00;100304.03;5003371;28;20234;-67
2023/12/30 04:08:45;;;;;;;6.33;1.30;;;;;;;7.23;100.00;100294.66;5007668;28;20313;-71
2023/12/30 04:11:12;;;;;;;2.20;1.27;;;;;;;7.26;100.00;100294.72;5002520;28;20307;-67
2023/12/30 04:13:38;;;;;;;1.90;1.00;;;;;;;7.35;100.00;100294.03;5001506;28;20581;-67
2023/12/30 04:16:06;;;;;;;4.50;1.23;;;;;;;7.42;100.00;100288.97;5006986;28;20227;-66
2023/12/30 04:18:33;;;;;;;4.30;1.27;;;;;;;7.50;100.00;100297.94;5002437;28;20236;-67
2023/12/30 04:20:59;;;;;;;2.60;1.00;;;;;;;7.39;100.00;100288.00;5010887;28;20230;-67
2023/12/30 04:23:26;;;;;;;2.07;1.20;;;;;;;7.22;100.00;100309.56;5012654;28;20237;-67
2023/12/30 04:25:52;;;;;;;3.60;1.20;;;;;;;6.91;100.00;100299.06;5004504;28;20281;-67
2023/12/30 04:28:19;;;;;;;3.27;1.13;;;;;;;6.61;100.00;100296.50;5006332;28;20212;-70
2023/12/30 04:30:45;;;;;;;3.73;1.00;;;;;;;6.45;100.00;100304.81;5009862;28;20306;-67
2023/12/30 04:33:12;;;;;;;1.70;1.10;;;;;;;6.38;100.00;100308.09;5004243;28;20209;-67
2023/12/30 04:35:41;;;;;;;5.40;1.40;;;;;;;6.28;100.00;100302.56;5005767;28;20228;-67
2023/12/30 04:38:07;;;;;;;2.53;1.10;;;;;;;6.47;100.00;100316.28;5012060;28;20645;-68
2023/12/30 04:40:34;;;;;;;5.23;1.10;;;;;;;6.42;100.00;100313.50;5009984;28;20262;-67
2023/12/30 04:43:00;;;;;;;4.17;1.50;;;;;;;6.48;100.00;100308.44;5001073;28;20628;-69
2023/12/30 04:45:27;;;;;;;2.30;1.20;;;;;;;6.35;100.00;100308.91;5009706;28;20199;-67
2023/12/30 04:47:53;;;;;;;4.57;0.87;;;;;;;6.33;100.00;100320.22;5010726;28;20392;-67
2023/12/30 04:50:20;;;;;;;2.87;0.97;;;;;;;6.17;100.00;100319.78;5010694;28;20214;-66
2023/12/30 04:52:46;;;;;;;2.40;1.20;;;;;;;6.22;100.00;100326.06;5004080;28;20265;-67
2023/12/30 04:55:13;;;;;;;4.73;1.60;;;;;;;6.25;100.00;100318.25;4996354;28;20224;-67
2023/12/30 04:57:41;;;;;;;1.90;1.07;;;;;;;6.13;100.00;100323.16;5010419;28;20222;-67
2023/12/30 05:00:07;;;;;;;5.70;1.27;;;;;;;6.07;100.00;100325.63;5010943;28;20201;-67
2023/12/30 05:02:34;;;;;;;3.23;1.20;;;;;;;6.10;100.00;100330.06;5006490;28;20307;-67
2023/12/30 05:05:00;;;;;;;2.77;1.17;;;;;;;6.10;100.00;100330.06;5003873;28;20211;-69
2023/12/30 05:07:27;;;;;;;3.90;1.33;;;;;;;6.03;100.00;100334.25;5010057;28;20215;-68
2023/12/30 05:09:53;;;;;;;3.83;1.30;;;;;;;6.09;100.00;100336.19;5003971;28;20208;-67
2023/12/30 05:12:20;;;;;;;2.80;1.27;;;;;;;6.04;100.00;100350.94;5004704;28;20242;-67
2023/12/30 05:14:46;;;;;;;3.80;1.23;;;;;;;6.10;100.00;100345.84;5000636;28;20566;-67
2023/12/30 05:17:13;;;;;;;5.07;1.10;;;;;;;6.06;100.00;100347.50;5005157;28;20215;-66
2023/12/30 05:19:39;;;;;;;3.93;0.90;;;;;;;6.08;100.00;100343.19;5007261;28;20295;-69
2023/12/30 05:22:05;;;;;;;2.50;1.00;;;;;;;6.11;100.00;100345.91;5011078;28;20231;-67
2023/12/30 05:24:32;;;;;;;4.57;1.60;;;;;;;6.32;100.00;100352.63;5010743;28;20586;-69
2023/12/30 05:26:58;;;;;;;3.63;1.10;;;;;;;6.43;100.00;100351.22;5023256;28;20247;-66
2023/12/30 05:29:25;;;;;;;4.47;1.30;;;;;;;6.52;100.00;100357.66;5004955;28;20667;-67
2023/12/30 05:31:51;;;;;;;3.37;1.10;;;;;;;6.64;100.00;100364.09;5007483;28;20750;-67
2023/12/30 05:34:18;;;;;;;2.23;1.20;;;;;;;6.74;100.00;100358.25;5003303;28;20347;-68
2023/12/30 05:36:44;;;;;;;4.07;0.97;;;;;;;6.88;100.00;100359.53;5010276;28;20283;-67
2023/12/30 05:39:13;;;;;;;3.13;1.40;;;;;;;6.98;100.00;100360.66;5023727;28;20272;-67
2023/12/30 05:41:39;;;;;;;5.40;1.30;;;;;;;7.00;100.00;100365.13;5011474;28;20224;-67
2023/12/30 05:44:06;;;;;;;5.00;1.40;;;;;;;7.15;100.00;100372.53;5002946;28;20649;-67
2023/12/30 05:46:32;;;;;;;5.20;1.20;;;;;;;7.23;100.00;100373.66;5005331;28;20287;-67
2023/12/30 05:48:59;;;;;;;3.50;1.00;;;;;;;7.34;100.00;100374.81;5006477;28;20207;-68
2023/12/30 05:51:25;;;;;;;7.63;1.30;;;;;;;7.40;100.00;100374.09;5004267;28;20229;-69
2023/12/30 05:53:52;;;;;;;5.70;1.27;;;;;;;7.38;100.00;100374.03;5006467;28;20243;-67
2023/12/30 05:56:23;;;;;;;5.63;1.20;;;;;;;7.41;100.00;100376.75;5000465;28;20583;-67
2023/12/30 05:58:50;;;;;;;4.63;1.40;;;;;;;7.44;100.00;100387.38;5005456;28;20203;-67
2023/12/30 06:01:16;;;;;;;3.53;1.20;;;;;;;7.49;100.00;100380.47;4998535;28;20719;-67
2023/12/30 06:03:43;;;;;;;3.77;1.00;;;;;;;7.52;100.00;100383.19;5004133;28;20205;-67
2023/12/30 06:06:10;;;;;;;2.67;1.30;;;;;;;7.58;100.00;100373.66;5004237;28;20201;-69
2023/12/30 06:08:37;;;;;;;3.80;1.00;;;;;;;7.47;100.00;100369.00;5008178;28;20213;-67
2023/12/30 06:11:04;;;;;;;3.80;1.13;;;;;;;7.27;100.00;100364.09;5020380;22;20331;-72
2023/12/30 06:13:31;;;;;;;1.70;1.00;;;;;;;7.22;100.00;100371.88;5005135;28;20667;-72
2023/12/30 06:15:58;;;;;;;3.17;1.20;;;;;;;6.97;100.00;100375.56;5003918;28;20305;-72
2023/12/30 06:18:30;;;;;;;7.60;1.43;;;;;;;6.79;100.00;100382.94;5008390;28;20630;-73
2023/12/30 06:20:58;;;;;;;3.83;1.00;;;;;;;6.82;100.00;100398.84;5001973;28;20220;-72
2023/12/30 06:23:27;;;;;;;1.13;0.90;;;;;;;6.69;100.00;100388.81;4981225;28;20205;-72
2023/12/30 06:25:53;;;;;;;3.17;1.10;;;;;;;6.57;100.00;100389.34;4989934;28;20213;-72
2023/12/30 06:28:20;;;;;;;3.70;0.90;;;;;;;6.47;100.00;100397.81;4988906;28;20232;-72
2023/12/30 06:30:46;;;;;;;2.80;1.20;;;;;;;6.50;100.00;100411.06;4996005;28;20252;-72
2023/12/30 06:33:13;;;;;;;5.20;1.13;;;;;;;6.64;100.00;100422.88;5006409;28;20208;-72
2023/12/30 06:35:39;;;;;;;3.87;1.20;;;;;;;6.69;100.00;100413.38;4990492;28;20229;-72
2023/12/30 06:38:06;;;;;;;3.17;1.23;;;;;;;6.72;100.00;100426.63;4989641;28;20266;-72
2023/12/30 06:40:32;;;;;;;4.50;1.10;;;;;;;6.77;100.00;100432.91;4985124;28;20208;-72
2023/12/30 06:42:59;;;;;;;3.90;1.40;;;;;;;6.79;100.00;100423.31;4989425;28;20221;-72
2023/12/30 06:45:26;;;;;;;4.67;1.50;;;;;;;6.94;100.00;100443.94;4987578;28;20700;-72
2023/12/30 06:47:52;;;;;;;5.17;1.20;;;;;;;6.98;100.00;100448.44;4983810;28;20205;-72
2023/12/30 06:50:20;;;;;;;3.33;1.20;;;;;;;6.94;100.00;100446.56;4988403;28;20298;-72
2023/12/30 06:52:47;;;;;;;3.37;1.30;;;;;;;6.80;100.00;100447.91;4982452;28;20259;-72
2023/12/30 06:55:14;;;;;;;2.63;1.20;;;;;;;6.57;100.00;100436.69;4986573;28;20807;-72
2023/12/30 06:57:51;;;;;;;4.70;1.30;;;;;;;6.64;100.00;100454.47;4990341;28;20207;-72
2023/12/30 07:00:18;;;;;;;2.63;1.00;;;;;;;6.33;100.00;100455.25;4990135;28;20228;-72
2023/12/30 07:02:44;;;;;;;5.93;1.20;;;;;;;5.98;100.00;100423.47;4990255;28;20247;-72
2023/12/30 07:05:11;;;;;;;1.93;1.20;;;;;;;5.95;100.00;100451.38;4983097;28;20212;-72
2023/12/30 07:07:38;;;;;;;6.17;1.50;;;;;;;5.92;100.00;100453.91;4990103;28;20219;-72
2023/12/30 07:10:05;;;;;;;3.77;1.63;;;;;;;5.94;100.00;100470.63;4988460;28;20239;-71
2023/12/30 07:12:31;;;;;;;5.07;1.47;;;;;;;6.02;100.00;100471.81;4984523;28;20347;-72
2023/12/30 07:14:58;;;;;;;4.80;2.13;;;;;;;6.08;100.00;100473.72;4987793;28;20200;-73
2023/12/30 07:17:25;;;;;;;2.57;1.27;;;;;;;6.16;100.00;100473.13;4986274;28;20227;-72
2023/12/30 07:19:51;;;;;;;3.90;1.50;;;;;;;6.21;100.00;100475.91;4990460;28;20205;-71
2023/12/30 07:22:19;;;;;;;2.33;1.40;;;;;;;6.16;100.00;100453.84;5000873;28;20243;-72
2023/12/30 07:24:46;;;;;;;3.10;1.50;;;;;;;6.33;100.00;100481.53;4989569;28;20228;-72
2023/12/30 07:27:14;;;;;;;3.97;1.50;;;;;;;6.41;100.00;100479.19;4986230;28;20220;-72
2023/12/30 07:29:40;;;;;;;4.10;1.37;;;;;;;6.44;100.00;100490.69;4990165;28;20632;-71
2023/12/30 07:32:07;;;;;;;7.23;1.80;;;;;;;6.56;100.00;100484.91;4980321;28;20716;-72
2023/12/30 07:34:33;;;;;;;6.03;1.40;;;;;;;6.70;100.00;100486.22;4987756;28;20291;-72
2023/12/30 07:37:01;;;;;;;4.17;1.60;;;;;;;6.75;100.00;100489.88;4985756;28;20217;-72
2023/12/30 07:39:28;;;;;;;4.53;1.63;;;;;;;6.81;100.00;100476.03;4984226;28;20203;-72
2023/12/30 07:41:54;;;;;;;2.67;1.27;;;;;;;6.88;100.00;100483.25;4985015;28;20257;-72
2023/12/30 07:44:21;;;;;;;4.83;1.30;;;;;;;6.96;100.00;100478.22;4990190;28;20287;-72
2023/12/30 07:46:47;;;;;;;3.67;1.33;;;;;;;7.05;100.00;100483.75;4989448;28;20664;-72
2023/12/30 07:49:17;;;;;;;2.57;1.17;;;;;;;7.00;100.00;100448.50;4983555;28;20576;-72
2023/12/30 07:51:43;;;;;;;3.63;1.17;;;;;;;7.16;100.00;100467.38;4989708;28;20226;-72
2023/12/30 07:54:10;;;;;;;2.83;0.87;;;;;;;7.30;100.00;100478.34;4987975;28;20269;-72
2023/12/30 07:56:36;;;;;;;6.83;1.30;;;;;;;7.29;100.00;100468.66;4988109;28;20228;-72
2023/12/30 07:59:03;;;;;;;3.07;1.20;;;;;;;7.32;100.00;100463.47;4985819;28;20264;-72
2023/12/30 08:01:29;;;;;;;2.83;1.07;;;;;;;7.35;100.00;100468.81;4988605;28;20238;-72
2023/12/30 08:03:56;;;;;;;4.77;1.30;;;;;;;7.37;100.00;100461.84;4987407;28;20207;-71
2023/12/30 08:06:22;;;;;;;2.40;1.10;;;;;;;7.37;100.00;100464.47;4983130;28;20200;-72
2023/12/30 08:08:49;;;;;;;2.50;1.17;;;;;;;7.33;100.00;100467.88;4989502;28;20201;-72
2023/12/30 08:11:15;;;;;;;2.30;0.80;;;;;;;7.24;100.00;100465.00;4989118;28;20230;-72
2023/12/30 08:13:42;;;;;;;3.27;1.10;;;;;;;7.26;100.00;100475.56;4986356;28;20565;-71
2023/12/30 08:16:08;;;;;;;3.23;1.30;;;;;;;7.27;100.00;100472.09;4984276;28;20669;-72
2023/12/30 08:18:35;;;;;;;4.03;1.30;;;;;;;7.38;100.00;100482.06;4987561;28;20212;-71
2023/12/30 08:21:02;;;;;;;3.03;1.23;;;;;;;7.39;100.00;100483.84;4988824;28;20275;-73
2023/12/30 08:23:28;;;;;;;2.43;1.60;;;;;;;7.38;100.00;100491.72;4989722;28;20198;-72
2023/12/30 08:25:54;;;;;;;3.43;1.63;;;;;;;7.38;100.00;100481.16;4981131;28;20203;-72
2023/12/30 08:28:21;;;;;;;4.00;1.57;;;;;;;7.43;100.00;100488.34;4983873;28;20207;-72
2023/12/30 08:30:47;;;;;;;4.97;1.50;;;;;;;7.50;100.00;100484.13;4988860;28;20677;-72
2023/12/30 08:33:14;;;;;;;6.67;1.70;;;;;;;7.57;100.00;100485.19;4986245;28;20208;-72
2023/12/30 08:35:41;;;;;;;5.70;1.77;;;;;;;7.62;100.00;100478.31;4988839;28;20205;-71
2023/12/30 08:38:07;;;;;;;1.87;0.90;;;;;;;7.74;100.00;100474.25;4987705;28;20487;-72
2023/12/30 08:40:33;;;;;;;3.20;1.10;;;;;;;7.84;100.00;100473.63;4987381;28;20209;-72
2023/12/30 08:43:02;;;;;;;2.93;0.97;;;;;;;7.94;100.00;100474.75;4984767;28;20215;-72
2023/12/30 08:45:29;;;;;;;4.03;1.30;;;;;;;8.04;100.00;100479.41;4989009;28;20209;-72
2023/12/30 08:47:55;;;;;;;1.93;0.90;;;;;;;8.20;100.00;100482.44;4988832;28;20682;-72
2023/12/30 08:50:22;;;;;;;3.07;1.20;;;;;;;8.16;100.00;100463.88;4982966;28;20205;-72
2023/12/30 08:52:49;;;;;;;3.63;1.00;;;;;;;8.27;100.00;100471.16;4984865;28;20252;-72
2023/12/30 08:55:15;;;;;;;3.90;1.20;;;;;;;8.25;100.00;100467.59;4988547;28;20235;-72
2023/12/30 08:57:43;;;;;;;3.30;1.10;;;;;;;8.26;100.00;100470.25;5003986;28;20230;-72
2023/12/30 09:00:11;;;;;;;3.53;1.20;;;;;;;8.33;100.00;100459.03;4982473;28;20207;-72
2023/12/30 09:02:38;;;;;;;5.37;1.67;;;;;;;8.34;100.00;100460.81;5001097;28;20711;-72
2023/12/30 09:05:05;;;;;;;7.17;1.60;;;;;;;8.48;100.00;100467.31;4984518;28;20207;-72
2023/12/30 09:07:31;;;;;;;5.87;1.50;;;;;;;8.43;100.00;100462.81;4986581;28;20204;-72
2023/12/30 09:09:58;;;;;;;5.33;1.60;;;;;;;8.55;100.00;100478.03;4992490;28;20445;-72
2023/12/30 09:12:25;;;;;;;5.43;1.90;;;;;;;8.69;100.00;100484.50;4991600;28;20231;-72
2023/12/30 09:14:51;;;;;;;8.73;1.87;;;;;;;8.74;100.00;100486.38;4990065;28;20254;-72
2023/12/30 09:17:18;;;;;;;8.27;1.67;;;;;;;8.73;100.00;100479.31;4985267;28;20232;-72
2023/12/30 09:19:44;;;;;;;5.47;1.40;;;;;;;8.76;100.00;100492.56;4992130;28;20565;-71
2023/12/30 09:22:12;;;;;;;3.53;1.40;;;;;;;8.81;100.00;100491.81;4992319;28;20289;-72
2023/12/30 09:24:38;;;;;;;5.60;1.80;;;;;;;8.95;100.00;100487.72;4983260;28;20684;-72
2023/12/30 09:27:05;;;;;;;3.53;1.30;;;;;;;9.10;100.00;100491.56;5001721;28;20225;-72
2023/12/30 09:29:31;;;;;;;7.17;1.80;;;;;;;9.20;100.00;100503.19;5004912;28;20667;-72
2023/12/30 09:31:57;;;;;;;2.87;1.27;;;;;;;9.37;100.00;100506.19;4989107;28;20597;-72
2023/12/30 09:34:24;;;;;;;4.40;1.30;;;;;;;9.41;100.00;100510.69;4991961;28;20207;-72
2023/12/30 09:37:06;;;;;;;4.00;1.60;;;;;;;9.37;100.00;100515.03;4995253;28;20233;-72
2023/12/30 09:39:33;;;;;;;2.83;1.30;;;;;;;9.42;100.00;100521.28;4991593;28;20202;-72
2023/12/30 09:41:59;;;;;;;5.27;1.60;;;;;;;9.38;100.00;100511.53;4987792;28;20239;-72
2023/12/30 09:44:27;;;;;;;6.47;1.27;;;;;;;9.49;100.00;100522.28;4992075;28;20295;-72
2023/12/30 09:46:54;;;;;;;3.87;1.23;;;;;;;9.45;100.00;100516.94;4991806;28;20201;-72
2023/12/30 09:49:21;;;;;;;3.43;1.30;;;;;;;9.46;100.00;100524.00;4985796;28;20640;-72
2023/12/30 09:51:47;;;;;;;3.87;1.20;;;;;;;9.54;100.00;100519.75;4986341;28;20217;-72
2023/12/30 09:54:14;;;;;;;2.87;1.37;;;;;;;9.62;100.00;100526.09;4991788;28;20671;-72
2023/12/30 09:56:41;;;;;;;5.93;1.57;;;;;;;9.73;100.00;100519.25;4991268;28;20226;-72
2023/12/30 09:59:08;;;;;;;3.73;1.67;;;;;;;9.77;100.00;100517.56;4982496;28;20662;-72
2023/12/30 10:01:36;;;;;;;3.80;1.37;;;;;;;9.74;100.00;100529.84;4990259;28;20235;-72
2023/12/30 10:04:06;;;;;;;3.03;1.33;;;;;;;9.83;100.00;100529.13;4988728;28;20211;-72
2023/12/30 10:06:33;;;;;;;4.87;1.40;;;;;;;9.86;100.00;100530.94;4980540;28;20195;-72
2023/12/30 10:09:00;;;;;;;3.60;1.40;;;;;;;10.00;100.00;100534.72;4990185;28;20199;-72
2023/12/30 10:11:27;;;;;;;6.83;1.60;;;;;;;9.99;100.00;100532.94;4989770;28;20303;-72
2023/12/30 10:13:54;;;;;;;5.47;1.70;;;;;;;9.99;100.00;100536.47;4984188;28;20197;-72
2023/12/30 10:16:21;;;;;;;3.53;1.50;;;;;;;10.04;100.00;100531.28;4987050;28;20775;-72
2023/12/30 10:18:47;;;;;;;4.87;1.40;;;;;;;10.13;100.00;100530.56;4990963;28;20294;-72
2023/12/30 10:21:16;;;;;;;2.30;1.20;;;;;;;10.20;100.00;100529.78;4990925;28;20232;-72
2023/12/30 10:23:43;;;;;;;9.33;1.60;;;;;;;10.32;100.00;100522.06;4985632;28;20230;-71
2023/12/30 10:26:09;;;;;;;7.40;1.80;;;;;;;10.56;100.00;100526.88;4990759;28;20329;-73
2023/12/30 10:28:37;;;;;;;6.30;1.90;;;;;;;10.79;100.00;100524.56;5003672;28;20236;-72
2023/12/30 10:31:05;;;;;;;3.40;1.63;;;;;;;11.02;100.00;100527.56;4987705;28;20647;-74
2023/12/30 10:33:34;;;;;;;4.20;1.40;;;;;;;10.98;100.00;100522.22;4991624;28;20291;-72
2023/12/30 10:36:04;;;;;;;5.93;1.60;;;;;;;10.99;100.00;100515.16;4986905;28;20651;-74
2023/12/30 10:38:32;;;;;;;4.90;1.50;;;;;;;10.86;100.00;100502.63;4989076;28;20202;-74
2023/12/30 10:40:58;;;;;;;6.60;1.60;;;;;;;10.79;100.00;100519.28;4987891;28;20235;-73
2023/12/30 10:43:25;;;;;;;5.17;1.83;;;;;;;10.72;100.00;100509.47;4987160;28;20209;-74
2023/12/30 10:46:01;;;;;;;3.93;2.07;;;;;;;10.59;100.00;100506.63;4989778;28;20200;-76
2023/12/30 10:48:32;;;;;;;1.57;1.23;;;;;;;10.56;100.00;100518.94;4985536;28;20645;-74
2023/12/30 10:51:00;;;;;;;6.13;1.70;;;;;;;10.47;100.00;100514.41;4989988;28;20226;-74
2023/12/30 10:53:31;;;;;;;5.20;1.63;;;;;;;10.46;100.00;100509.97;4988569;28;20207;-73
2023/12/30 10:56:03;;;;;;;4.60;1.97;;;;;;;10.43;100.00;100509.94;4984940;28;20662;-74
2023/12/30 10:58:36;;;;;;;2.80;1.50;;;;;;;10.40;100.00;100509.84;4985270;28;20222;-74
2023/12/30 11:01:04;;;;;;;4.00;1.80;;;;;;;10.37;100.00;100504.50;4989351;28;20267;-73
2023/12/30 11:03:33;;;;;;;4.33;1.60;;;;;;;10.33;100.00;100492.97;4998642;28;20213;-74
2023/12/30 11:06:24;;;;;;;3.37;1.50;;;;;;;10.35;100.00;100490.34;4988430;28;20679;-73
2023/12/30 11:08:58;;;;;;;5.90;1.90;;;;;;;10.56;100.00;100495.09;4985926;28;20267;-73
2023/12/30 11:11:25;;;;;;;3.87;1.43;;;;;;;10.68;100.00;100493.53;4986262;28;20282;-74
2023/12/30 11:13:55;;;;;;;2.90;1.37;;;;;;;10.78;100.00;100494.53;4988781;28;20207;-73
2023/12/30 11:16:21;;;;;;;4.23;1.53;;;;;;;10.79;100.00;100488.38;4988922;28;20207;-74
2023/12/30 11:18:49;;;;;;;3.43;1.40;;;;;;;10.82;100.00;100498.16;4987165;28;20737;-73
2023/12/30 11:21:33;;;;;;;5.63;1.30;;;;;;;10.92;100.00;100495.63;4985882;28;20631;-73
2023/12/30 11:24:01;;;;;;;2.93;1.50;;;;;;;11.13;100.00;100502.06;4990276;28;20217;-73
2023/12/30 11:26:29;;;;;;;8.10;1.63;;;;;;;11.09;100.00;100492.31;4986020;28;20299;-75